createdAt,value
2023-02-27T00:02:21.514Z,99.90
2023-02-27T00:04:54.984Z,99.90
2023-02-27T00:07:28.684Z,99.90
2023-02-27T00:12:38.825Z,99.90
2023-02-27T00:15:20.316Z,99.90
2023-02-27T00:17:52.428Z,99.90
2023-02-27T00:20:25.783Z,99.90
2023-02-27T00:22:58.356Z,99.90
2023-02-27T00:25:31.233Z,99.90
2023-02-27T00:28:04.522Z,99.90
2023-02-27T00:30:37.344Z,99.90
2023-02-27T00:33:09.513Z,99.90
2023-02-27T00:35:42.573Z,99.90
2023-02-27T00:38:14.594Z,99.90
2023-02-27T00:40:47.279Z,99.90
2023-02-27T00:43:20.012Z,99.90
2023-02-27T00:48:24.551Z,99.90
2023-02-27T00:50:57.251Z,99.90
2023-02-27T00:53:30.070Z,99.90
2023-02-27T00:58:34.418Z,99.90
2023-02-27T01:01:07.158Z,99.90
2023-02-27T01:06:12.281Z,99.90
2023-02-27T01:11:19.769Z,99.90
2023-02-27T01:13:52.030Z,99.90
2023-02-27T01:16:25.223Z,99.90
2023-02-27T01:18:57.137Z,99.90
2023-02-27T01:21:29.982Z,99.90
2023-02-27T01:24:02.295Z,99.90
2023-02-27T01:26:34.655Z,99.90
2023-02-27T01:29:07.030Z,99.90
2023-02-27T01:31:39.377Z,99.90
2023-02-27T01:36:46.242Z,99.90
2023-02-27T01:39:21.100Z,99.90
2023-02-27T01:41:54.272Z,99.90
2023-02-27T01:44:29.547Z,99.90
2023-02-27T01:47:01.408Z,99.90
2023-02-27T01:49:35.467Z,99.90
2023-02-27T01:52:11.065Z,99.90
2023-02-27T01:54:43.893Z,99.90
2023-02-27T01:57:15.781Z,99.90
2023-02-27T01:59:48.810Z,99.90
2023-02-27T02:02:30.979Z,99.90
2023-02-27T02:05:05.368Z,99.90
2023-02-27T02:07:40.185Z,99.90
2023-02-27T02:10:14.435Z,99.90
2023-02-27T02:12:47.562Z,99.90
2023-02-27T02:15:28.722Z,99.90
2023-02-27T02:18:27.830Z,99.90
2023-02-27T02:21:33.555Z,99.90
2023-02-27T02:24:21.195Z,99.90
2023-02-27T02:27:37.262Z,99.90
2023-02-27T02:30:45.482Z,99.90
2023-02-27T02:33:57.746Z,99.90
2023-02-27T02:36:57.408Z,99.90
2023-02-27T02:40:14.529Z,99.90
2023-02-27T02:43:06.918Z,99.90
2023-02-27T02:46:08.244Z,99.90
2023-02-27T02:49:00.255Z,99.90
2023-02-27T02:51:48.880Z,99.90
2023-02-27T02:54:57.568Z,99.90
2023-02-27T02:57:58.301Z,99.90
2023-02-27T03:00:42.781Z,99.90
2023-02-27T03:03:25.575Z,99.90
2023-02-27T03:06:26.747Z,99.90
2023-02-27T03:09:08.496Z,99.90
2023-02-27T03:11:44.589Z,99.90
2023-02-27T03:14:33.885Z,99.90
2023-02-27T03:17:11.176Z,99.90
2023-02-27T03:20:04.052Z,99.90
2023-02-27T03:22:42.249Z,99.90
2023-02-27T03:25:15.363Z,99.90
2023-02-27T03:28:08.415Z,99.90
2023-02-27T03:31:10.187Z,99.90
2023-02-27T03:33:56.448Z,99.90
2023-02-27T03:36:46.090Z,99.90
2023-02-27T03:39:59.677Z,99.90
2023-02-27T03:42:49.789Z,99.90
2023-02-27T03:45:53.879Z,99.90
2023-02-27T03:48:27.401Z,99.90
2023-02-27T03:51:00.561Z,99.90
2023-02-27T03:53:39.382Z,99.90
2023-02-27T03:56:14.486Z,99.90
2023-02-27T03:58:47.608Z,99.90
2023-02-27T04:01:20.045Z,99.90
2023-02-27T04:03:59.573Z,99.90
2023-02-27T04:07:24.230Z,99.90
2023-02-27T04:10:05.430Z,99.90
2023-02-27T04:13:15.925Z,99.90
2023-02-27T04:16:17.217Z,99.90
2023-02-27T04:19:39.023Z,99.90
2023-02-27T04:22:29.374Z,99.90
2023-02-27T04:25:26.671Z,99.90
2023-02-27T04:28:25.544Z,99.90
2023-02-27T04:31:08.849Z,99.90
2023-02-27T04:33:54.797Z,99.90
2023-02-27T04:36:48.361Z,99.90
2023-02-27T04:39:35.932Z,99.90
2023-02-27T04:42:24.415Z,99.90
2023-02-27T04:45:01.370Z,99.90
2023-02-27T04:47:58.286Z,99.90
2023-02-27T04:50:40.184Z,99.90
2023-02-27T04:53:36.579Z,99.90
2023-02-27T04:56:14.482Z,99.90
2023-02-27T04:59:02.550Z,99.90
2023-02-27T05:02:05.431Z,99.90
2023-02-27T05:04:40.568Z,99.90
2023-02-27T05:07:20.796Z,99.90
2023-02-27T05:09:57.741Z,99.90
2023-02-27T05:12:48.429Z,99.90
2023-02-27T05:16:22.442Z,99.90
2023-02-27T05:18:55.768Z,99.90
2023-02-27T05:21:59.796Z,99.90
2023-02-27T05:24:50.753Z,99.90
2023-02-27T05:27:44.464Z,99.90
2023-02-27T05:30:35.557Z,99.90
2023-02-27T05:33:30.931Z,99.90
2023-02-27T05:36:08.030Z,99.90
2023-02-27T05:39:09.201Z,99.90
2023-02-27T05:41:47.903Z,99.90
2023-02-27T05:44:34.828Z,99.90
2023-02-27T05:47:12.909Z,99.90
2023-02-27T05:49:53.679Z,99.90
2023-02-27T05:52:27.109Z,99.90
2023-02-27T05:55:22.754Z,99.90
2023-02-27T05:58:06.792Z,99.90
2023-02-27T06:00:44.088Z,99.90
2023-02-27T06:03:16.438Z,99.90
2023-02-27T06:05:53.505Z,99.90
2023-02-27T06:08:27.381Z,99.90
2023-02-27T06:13:31.823Z,99.90
2023-02-27T06:16:04.555Z,99.90
2023-02-27T06:18:37.163Z,99.90
2023-02-27T06:21:09.596Z,99.90
2023-02-27T06:23:41.505Z,99.90
2023-02-27T06:26:14.577Z,99.90
2023-02-27T06:28:46.528Z,99.90
2023-02-27T06:31:18.811Z,99.90
2023-02-27T06:33:50.733Z,99.90
2023-02-27T06:36:23.326Z,99.90
2023-02-27T06:38:55.636Z,99.90
2023-02-27T06:41:29.329Z,99.90
2023-02-27T06:44:01.274Z,99.90
2023-02-27T06:46:33.829Z,99.90
2023-02-27T06:49:05.768Z,99.90
2023-02-27T06:51:38.165Z,99.90
2023-02-27T06:54:10.069Z,99.90
2023-02-27T06:56:42.482Z,99.90
2023-02-27T06:59:14.518Z,99.90
2023-02-27T07:07:33.978Z,99.90
2023-02-27T07:09:46.108Z,99.90
2023-02-27T07:19:56.083Z,99.90
2023-02-27T07:25:01.064Z,99.90
2023-02-27T07:27:33.724Z,99.90
2023-02-27T07:32:39.153Z,99.90
2023-02-27T07:35:12.023Z,99.90
2023-02-27T07:40:17.358Z,99.90
2023-02-27T07:42:52.698Z,99.90
2023-02-27T07:45:25.022Z,99.90
2023-02-27T07:47:57.620Z,99.90
2023-02-27T07:53:02.598Z,99.90
2023-02-27T07:55:34.582Z,99.90
2023-02-27T07:58:07.549Z,99.90
2023-02-27T08:00:39.564Z,99.90
2023-02-27T08:03:12.379Z,99.90
2023-02-27T08:05:44.348Z,99.90
2023-02-27T08:08:16.960Z,99.90
2023-02-27T08:10:50.127Z,99.90
2023-02-27T08:13:35.954Z,99.90
2023-02-27T08:16:15.350Z,99.90
2023-02-27T08:18:48.142Z,99.90
2023-02-27T08:21:20.092Z,99.90
2023-02-27T08:26:25.328Z,99.90
2023-02-27T08:28:58.062Z,99.90
2023-02-27T08:36:43.068Z,99.90
2023-02-27T08:39:15.805Z,99.90
2023-02-27T08:41:55.262Z,99.90
2023-02-27T08:44:27.838Z,99.90
2023-02-27T08:46:59.786Z,99.90
2023-02-27T08:49:32.439Z,99.90
2023-02-27T08:52:05.554Z,99.90
2023-02-27T08:57:12.420Z,99.90
2023-02-27T08:59:45.095Z,99.90
2023-02-27T09:04:51.577Z,99.90
2023-02-27T09:07:23.522Z,99.90
2023-02-27T09:09:55.766Z,99.90
2023-02-27T09:15:00.880Z,99.90
2023-02-27T09:17:32.920Z,99.90
2023-02-27T09:20:09.535Z,99.90
2023-02-27T09:22:41.903Z,99.90
2023-02-27T09:27:47.052Z,99.90
2023-02-27T09:30:19.751Z,99.90
2023-02-27T09:35:25.622Z,99.90
2023-02-27T09:40:38.177Z,99.90
2023-02-27T09:43:35.216Z,99.90
2023-02-27T09:46:11.353Z,99.90
2023-02-27T09:48:54.140Z,99.90
2023-02-27T09:51:28.104Z,99.90
2023-02-27T09:54:02.258Z,99.90
2023-02-27T09:56:42.772Z,99.90
2023-02-27T09:59:44.088Z,99.90
2023-02-27T10:02:55.675Z,99.90
2023-02-27T10:08:27.978Z,99.90
2023-02-27T10:11:07.811Z,99.90
2023-02-27T10:14:10.261Z,99.90
2023-02-27T10:16:43.368Z,99.90
2023-02-27T10:19:23.015Z,99.90
2023-02-27T10:21:58.410Z,99.50
2023-02-27T10:24:41.278Z,99.20
2023-02-27T10:27:19.579Z,98.30
2023-02-27T10:30:01.166Z,97.40
2023-02-27T10:32:36.347Z,96.20
2023-02-27T10:38:06.441Z,95.50
2023-02-27T10:40:41.855Z,95.40
2023-02-27T10:43:19.401Z,96.00
2023-02-27T10:48:25.592Z,97.60
2023-02-27T10:51:23.136Z,97.70
2023-02-27T10:54:26.868Z,97.30
2023-02-27T10:57:02.510Z,97.40
2023-02-27T10:59:40.780Z,97.30
2023-02-27T11:02:15.862Z,97.60
2023-02-27T11:04:54.294Z,97.60
2023-02-27T11:07:39.471Z,97.30
2023-02-27T11:10:20.348Z,97.10
2023-02-27T11:13:02.960Z,97.10
2023-02-27T11:15:38.606Z,97.20
2023-02-27T11:18:30.998Z,97.10
2023-02-27T11:21:29.117Z,97.00
2023-02-27T11:24:07.702Z,97.20
2023-02-27T11:26:57.621Z,97.50
2023-02-27T11:29:29.951Z,97.10
2023-02-27T11:32:15.164Z,97.10
2023-02-27T11:34:50.289Z,97.20
2023-02-27T11:37:34.524Z,96.70
2023-02-27T11:40:09.588Z,97.10
2023-02-27T11:43:16.698Z,96.50
2023-02-27T11:46:05.117Z,96.40
2023-02-27T11:49:03.562Z,96.50
2023-02-27T11:52:04.152Z,96.40
2023-02-27T11:54:43.995Z,96.30
2023-02-27T11:57:38.542Z,95.80
2023-02-27T12:00:27.632Z,96.10
2023-02-27T12:03:07.042Z,95.60
2023-02-27T12:05:56.652Z,96.00
2023-02-27T12:08:46.153Z,95.40
2023-02-27T12:11:34.789Z,95.90
2023-02-27T12:14:15.432Z,95.10
2023-02-27T12:16:59.726Z,95.30
2023-02-27T12:19:43.974Z,95.30
2023-02-27T12:22:33.015Z,95.10
2023-02-27T12:25:23.429Z,94.80
2023-02-27T12:28:31.003Z,95.00
2023-02-27T12:31:35.996Z,94.70
2023-02-27T12:34:31.059Z,94.30
2023-02-27T12:37:13.530Z,93.90
2023-02-27T12:39:48.013Z,93.80
2023-02-27T12:42:57.269Z,94.10
2023-02-27T12:45:50.593Z,94.20
2023-02-27T12:48:45.944Z,93.90
2023-02-27T12:51:47.630Z,94.10
2023-02-27T12:55:02.184Z,94.40
2023-02-27T12:58:31.687Z,99.90
2023-02-27T13:01:14.175Z,96.30
2023-02-27T13:03:55.294Z,96.30
2023-02-27T13:06:37.319Z,95.90
2023-02-27T13:09:28.198Z,96.00
2023-02-27T13:12:39.505Z,95.60
2023-02-27T13:15:25.900Z,95.50
2023-02-27T13:18:40.965Z,95.80
2023-02-27T13:21:24.986Z,95.90
2023-02-27T13:24:24.332Z,95.90
2023-02-27T13:27:25.365Z,96.20
2023-02-27T13:30:30.499Z,95.90
2023-02-27T13:33:30.681Z,95.80
2023-02-27T13:36:24.555Z,96.10
2023-02-27T13:38:57.701Z,95.70
2023-02-27T13:41:35.546Z,95.70
2023-02-27T13:44:20.850Z,95.20
2023-02-27T13:49:30.183Z,95.00
2023-02-27T13:52:02.742Z,95.20
2023-02-27T13:54:41.376Z,95.50
2023-02-27T13:57:21.301Z,95.50
2023-02-27T14:00:19.873Z,95.40
2023-02-27T14:03:26.024Z,95.60
2023-02-27T14:06:03.764Z,96.00
2023-02-27T14:08:50.461Z,95.70
2023-02-27T14:11:28.936Z,95.40
2023-02-27T14:14:05.131Z,95.20
2023-02-27T14:16:40.106Z,95.70
2023-02-27T14:19:15.325Z,95.30
2023-02-27T14:22:01.455Z,94.60
2023-02-27T14:24:49.763Z,95.10
2023-02-27T14:27:46.968Z,95.50
2023-02-27T14:30:36.885Z,95.40
2023-02-27T14:33:37.755Z,95.30
2023-02-27T14:36:28.997Z,95.30
2023-02-27T14:39:02.302Z,95.40
2023-02-27T14:42:26.224Z,95.70
2023-02-27T14:44:58.916Z,96.00
2023-02-27T14:47:37.601Z,96.00
2023-02-27T14:50:37.653Z,96.20
2023-02-27T14:53:25.488Z,96.20
2023-02-27T14:55:59.852Z,95.70
2023-02-27T14:58:31.876Z,95.60
2023-02-27T15:01:09.525Z,96.30
2023-02-27T15:03:52.760Z,96.40
2023-02-27T15:06:35.426Z,96.20
2023-02-27T15:09:08.156Z,96.40
2023-02-27T15:11:43.150Z,96.80
2023-02-27T15:14:24.212Z,95.90
2023-02-27T15:16:58.367Z,96.30
2023-02-27T15:19:31.314Z,96.10
2023-02-27T15:22:21.350Z,95.40
2023-02-27T15:24:59.625Z,95.60
2023-02-27T15:27:33.743Z,95.20
2023-02-27T15:30:07.566Z,95.60
2023-02-27T15:32:43.569Z,95.70
2023-02-27T15:35:28.448Z,95.50
2023-02-27T15:38:02.820Z,95.10
2023-02-27T15:40:36.232Z,95.40
2023-02-27T15:43:09.970Z,94.90
2023-02-27T15:45:42.953Z,95.00
2023-02-27T15:48:16.921Z,95.20
2023-02-27T15:50:57.012Z,94.60
2023-02-27T15:53:33.976Z,94.80
2023-02-27T15:56:12.078Z,94.80
2023-02-27T15:58:54.445Z,94.30
2023-02-27T16:01:32.625Z,94.50
2023-02-27T16:04:27.212Z,94.60
2023-02-27T16:07:10.934Z,94.50
2023-02-27T16:09:44.069Z,94.80
2023-02-27T16:12:33.435Z,94.50
2023-02-27T16:15:27.051Z,94.90
2023-02-27T16:18:08.227Z,95.20
2023-02-27T16:20:54.693Z,94.40
2023-02-27T16:23:32.284Z,94.60
2023-02-27T16:26:38.333Z,94.50
2023-02-27T16:29:21.260Z,94.90
2023-02-27T16:31:58.322Z,95.20
2023-02-27T16:34:45.201Z,95.00
2023-02-27T16:37:27.990Z,94.90
2023-02-27T16:39:59.897Z,94.90
2023-02-27T16:42:32.598Z,95.00
2023-02-27T16:45:05.174Z,95.30
2023-02-27T16:47:37.849Z,95.00
2023-02-27T16:50:22.490Z,95.00
2023-02-27T16:52:55.576Z,95.50
2023-02-27T16:55:27.939Z,94.70
2023-02-27T16:58:00.517Z,95.20
2023-02-27T17:00:34.132Z,95.00
2023-02-27T17:05:39.906Z,95.40
2023-02-27T17:08:13.146Z,95.50
2023-02-27T17:10:45.079Z,95.60
2023-02-27T17:13:17.821Z,95.30
2023-02-27T17:15:49.735Z,95.60
2023-02-27T17:18:23.005Z,95.60
2023-02-27T17:20:57.239Z,96.00
2023-02-27T17:23:29.829Z,96.30
2023-02-27T17:26:01.812Z,96.30
2023-02-27T17:28:34.449Z,96.60
2023-02-27T17:31:15.570Z,96.30
2023-02-27T17:33:47.453Z,96.70
2023-02-27T17:36:21.583Z,96.70
2023-02-27T17:39:02.804Z,96.50
2023-02-27T17:41:35.442Z,99.90
2023-02-27T17:44:07.396Z,99.90
2023-02-27T17:46:40.981Z,99.90
2023-02-27T17:49:12.858Z,99.90
2023-02-27T17:54:17.796Z,99.90
2023-02-27T17:56:50.524Z,99.90
2023-02-27T17:59:22.417Z,99.90
2023-02-27T18:01:55.757Z,99.90
2023-02-27T18:04:27.854Z,99.90
2023-02-27T18:07:00.392Z,99.90
2023-02-27T18:12:05.540Z,99.90
2023-02-27T18:14:37.569Z,99.90
2023-02-27T18:17:12.865Z,99.90
2023-02-27T18:19:44.845Z,99.90
2023-02-27T18:22:17.728Z,99.90
2023-02-27T18:24:53.969Z,99.90
2023-02-27T18:27:28.314Z,99.90
2023-02-27T18:30:00.490Z,99.90
2023-02-27T18:32:33.032Z,99.90
2023-02-27T18:37:38.255Z,99.90
2023-02-27T18:40:12.529Z,99.90
2023-02-27T18:45:21.086Z,99.90
2023-02-27T18:47:54.455Z,99.90
2023-02-27T18:50:26.467Z,99.90
2023-02-27T18:53:00.568Z,99.90
2023-02-27T18:55:32.496Z,99.90
2023-02-27T18:58:06.168Z,99.90
2023-02-27T19:00:38.209Z,99.90
2023-02-27T19:03:10.249Z,99.90
2023-02-27T19:05:42.324Z,99.90
2023-02-27T19:08:14.261Z,99.90
2023-02-27T19:10:46.999Z,99.90
2023-02-27T19:13:18.897Z,99.90
2023-02-27T19:15:51.605Z,99.90
2023-02-27T19:23:29.484Z,99.90
2023-02-27T19:26:02.452Z,99.90
2023-02-27T19:28:34.607Z,99.90
2023-02-27T19:31:14.179Z,99.90
2023-02-27T19:33:46.111Z,99.90
2023-02-27T19:36:22.715Z,99.90
2023-02-27T19:38:56.719Z,99.90
2023-02-27T19:41:31.329Z,99.90
2023-02-27T19:49:13.600Z,99.90
2023-02-27T19:51:45.513Z,99.90
2023-02-27T19:54:18.287Z,99.90
2023-02-27T19:59:24.958Z,99.90
2023-02-27T20:01:56.929Z,99.90
2023-02-27T20:12:07.513Z,99.90
2023-02-27T20:14:40.472Z,99.90
2023-02-27T20:17:12.673Z,99.90
2023-02-27T20:22:17.559Z,99.90
2023-02-27T20:24:49.912Z,99.90
2023-02-27T20:27:21.896Z,99.90
2023-02-27T20:29:58.243Z,99.90
2023-02-27T20:32:31.001Z,99.90
2023-02-27T20:35:03.953Z,99.90
2023-02-27T20:37:35.870Z,99.90
2023-02-27T20:42:41.896Z,99.90
2023-02-27T20:45:14.480Z,99.90
2023-02-27T20:47:51.739Z,99.90
2023-02-27T20:52:56.774Z,99.90
2023-02-27T20:58:01.778Z,99.90
2023-02-27T21:03:06.646Z,99.90
2023-02-27T21:05:46.490Z,99.90
2023-02-27T21:08:18.944Z,99.90
2023-02-27T21:10:51.622Z,99.90
2023-02-27T21:13:23.907Z,99.90
2023-02-27T21:16:00.530Z,99.90
2023-02-27T21:18:32.557Z,99.90
2023-02-27T21:21:10.749Z,99.90
2023-02-27T21:23:44.211Z,99.90
2023-02-27T21:26:26.984Z,99.90
2023-02-27T21:29:04.237Z,99.90
2023-02-27T21:31:37.859Z,99.90
2023-02-27T21:34:15.550Z,99.90
2023-02-27T21:36:50.512Z,99.90
2023-02-27T21:39:26.943Z,99.90
2023-02-27T21:42:02.229Z,99.90
2023-02-27T21:44:34.892Z,99.90
2023-02-27T21:47:10.014Z,99.90
2023-02-27T21:49:42.710Z,99.90
2023-02-27T21:54:47.582Z,99.90
2023-02-27T21:57:21.480Z,99.90
2023-02-27T21:59:54.031Z,99.90
2023-02-27T22:04:59.369Z,99.90
2023-02-27T22:07:31.412Z,99.90
2023-02-27T22:10:04.252Z,99.90
2023-02-27T22:12:36.180Z,99.90
2023-02-27T22:15:09.786Z,99.90
2023-02-27T22:17:41.893Z,99.90
2023-02-27T22:20:14.535Z,99.90
2023-02-27T22:22:47.267Z,99.90
2023-02-27T22:25:19.870Z,99.90
2023-02-27T22:27:51.822Z,99.90
2023-02-27T22:30:24.430Z,99.90
2023-02-27T22:35:29.662Z,99.90
2023-02-27T22:38:01.643Z,99.90
2023-02-27T22:40:36.443Z,99.90
2023-02-27T22:45:47.848Z,99.90
2023-02-27T22:48:19.715Z,99.90
2023-02-27T22:51:14.747Z,99.90
2023-02-27T22:53:47.270Z,99.90
2023-02-27T22:56:19.327Z,99.90
2023-02-27T22:58:52.620Z,99.90
2023-02-27T23:01:31.041Z,99.90
2023-02-27T23:04:07.702Z,99.90
2023-02-27T23:06:40.842Z,99.90
2023-02-27T23:09:19.503Z,99.90
2023-02-27T23:11:51.946Z,99.90
2023-02-27T23:14:24.590Z,99.90
2023-02-27T23:16:56.595Z,99.90
2023-02-27T23:19:29.205Z,99.90
2023-02-27T23:22:01.118Z,99.90
2023-02-27T23:24:33.682Z,99.90
2023-02-27T23:27:19.605Z,99.90
2023-02-27T23:29:58.170Z,99.90
2023-02-27T23:32:30.096Z,99.90
2023-02-27T23:35:02.899Z,99.90
2023-02-27T23:40:08.532Z,99.90
2023-02-27T23:48:00.965Z,99.90
2023-02-27T23:50:41.654Z,99.90
